sensor_id;sensor_type;location;lat;lon;timestamp;pressure;altitude;pressure_sealevel;temperature;humidity
70745;BME280;59284;31.390;34.904;2022-10-26T00:00:39;94860.88;;;19.15;100.00
70745;BME280;59284;31.390;34.904;2022-10-26T00:03:05;94850.97;;;19.08;100.00
70745;BME280;59284;31.390;34.904;2022-10-26T00:05:34;94845.97;;;19.03;100.00
70745;BME280;59284;31.390;34.904;2022-10-26T00:08:00;94840.69;;;19.03;100.00
70745;BME280;59284;31.390;34.904;2022-10-26T00:10:26;94834.41;;;19.08;100.00
70745;BME280;59284;31.390;34.904;2022-10-26T00:12:52;94837.88;;;19.12;100.00
70745;BME280;59284;31.390;34.904;2022-10-26T00:15:19;94831.78;;;19.08;100.00
70745;BME280;59284;31.390;34.904;2022-10-26T00:17:46;94826.13;;;19.06;100.00
70745;BME280;59284;31.390;34.904;2022-10-26T00:20:12;94824.56;;;19.05;100.00
70745;BME280;59284;31.390;34.904;2022-10-26T00:22:38;94825.69;;;19.04;100.00
70745;BME280;59284;31.390;34.904;2022-10-26T00:25:04;94821.53;;;19.03;100.00
70745;BME280;59284;31.390;34.904;2022-10-26T00:27:31;94815.00;;;18.97;100.00
70745;BME280;59284;31.390;34.904;2022-10-26T00:29:59;94814.41;;;19.03;100.00
70745;BME280;59284;31.390;34.904;2022-10-26T00:32:25;94814.91;;;19.09;100.00
70745;BME280;59284;31.390;34.904;2022-10-26T00:34:51;94813.13;;;19.13;100.00
70745;BME280;59284;31.390;34.904;2022-10-26T00:37:16;94818.81;;;19.15;100.00
70745;BME280;59284;31.390;34.904;2022-10-26T00:39:42;94814.22;;;19.12;100.00
70745;BME280;59284;31.390;34.904;2022-10-26T00:42:17;94814.38;;;19.19;100.00
70745;BME280;59284;31.390;34.904;2022-10-26T00:47:12;94810.91;;;19.15;100.00
70745;BME280;59284;31.390;34.904;2022-10-26T00:49:39;94816.09;;;19.11;100.00
70745;BME280;59284;31.390;34.904;2022-10-26T00:52:06;94801.50;;;19.14;100.00
70745;BME280;59284;31.390;34.904;2022-10-26T00:54:33;94809.81;;;19.16;100.00
70745;BME280;59284;31.390;34.904;2022-10-26T00:56:59;94805.81;;;19.22;100.00
70745;BME280;59284;31.390;34.904;2022-10-26T00:59:25;94801.84;;;19.12;100.00
70745;BME280;59284;31.390;34.904;2022-10-26T01:01:51;94806.75;;;19.14;100.00
70745;BME280;59284;31.390;34.904;2022-10-26T01:04:17;94801.91;;;19.16;100.00
70745;BME280;59284;31.390;34.904;2022-10-26T01:06:44;94788.94;;;19.23;100.00
70745;BME280;59284;31.390;34.904;2022-10-26T01:09:11;94790.81;;;19.22;100.00
70745;BME280;59284;31.390;34.904;2022-10-26T01:11:37;94789.28;;;19.21;100.00
70745;BME280;59284;31.390;34.904;2022-10-26T01:14:06;94791.13;;;19.21;100.00
70745;BME280;59284;31.390;34.904;2022-10-26T01:19:37;94790.22;;;19.13;100.00
70745;BME280;59284;31.390;34.904;2022-10-26T01:22:35;94791.84;;;19.18;100.00
70745;BME280;59284;31.390;34.904;2022-10-26T01:27:58;94790.97;;;19.14;100.00
70745;BME280;59284;31.390;34.904;2022-10-26T01:30:39;94793.75;;;19.21;100.00
70745;BME280;59284;31.390;34.904;2022-10-26T01:33:20;94788.66;;;19.28;100.00
70745;BME280;59284;31.390;34.904;2022-10-26T01:36:01;94786.72;;;19.25;100.00
70745;BME280;59284;31.390;34.904;2022-10-26T01:38:29;94792.75;;;19.25;100.00
70745;BME280;59284;31.390;34.904;2022-10-26T01:44:01;94787.56;;;19.29;100.00
70745;BME280;59284;31.390;34.904;2022-10-26T01:46:32;94787.63;;;19.32;100.00
70745;BME280;59284;31.390;34.904;2022-10-26T01:49:01;94793.56;;;19.29;100.00
70745;BME280;59284;31.390;34.904;2022-10-26T01:51:30;94776.78;;;19.34;100.00
70745;BME280;59284;31.390;34.904;2022-10-26T01:53:57;94788.50;;;19.36;100.00
70745;BME280;59284;31.390;34.904;2022-10-26T01:56:26;94784.69;;;19.34;100.00
70745;BME280;59284;31.390;34.904;2022-10-26T02:01:55;94786.13;;;19.31;100.00
70745;BME280;59284;31.390;34.904;2022-10-26T02:07:44;94809.34;;;19.29;100.00
70745;BME280;59284;31.390;34.904;2022-10-26T02:16:53;94815.81;;;19.47;100.00
70745;BME280;59284;31.390;34.904;2022-10-26T02:22:32;94821.81;;;19.48;100.00
70745;BME280;59284;31.390;34.904;2022-10-26T02:25:04;94826.41;;;19.51;100.00
70745;BME280;59284;31.390;34.904;2022-10-26T02:27:37;94829.25;;;19.61;100.00
70745;BME280;59284;31.390;34.904;2022-10-26T02:30:07;94840.50;;;19.58;100.00
70745;BME280;59284;31.390;34.904;2022-10-26T02:32:38;94840.56;;;19.62;100.00
70745;BME280;59284;31.390;34.904;2022-10-26T02:35:05;94848.53;;;19.66;100.00
70745;BME280;59284;31.390;34.904;2022-10-26T02:37:33;94854.41;;;19.59;100.00
70745;BME280;59284;31.390;34.904;2022-10-26T02:40:03;94851.28;;;19.53;100.00
70745;BME280;59284;31.390;34.904;2022-10-26T02:42:31;94850.50;;;19.53;100.00
70745;BME280;59284;31.390;34.904;2022-10-26T02:45:03;94848.66;;;19.53;100.00
70745;BME280;59284;31.390;34.904;2022-10-26T02:47:31;94854.16;;;19.48;100.00
70745;BME280;59284;31.390;34.904;2022-10-26T02:49:58;94852.16;;;19.42;100.00
70745;BME280;59284;31.390;34.904;2022-10-26T02:55:18;94843.56;;;19.29;100.00
70745;BME280;59284;31.390;34.904;2022-10-26T02:57:50;94835.34;;;19.31;100.00
70745;BME280;59284;31.390;34.904;2022-10-26T03:00:18;94840.19;;;19.29;100.00
70745;BME280;59284;31.390;34.904;2022-10-26T03:02:49;94846.19;;;19.29;100.00
70745;BME280;59284;31.390;34.904;2022-10-26T03:05:20;94840.59;;;19.31;100.00
70745;BME280;59284;31.390;34.904;2022-10-26T03:07:47;94844.25;;;19.26;100.00
70745;BME280;59284;31.390;34.904;2022-10-26T03:10:13;94836.97;;;19.20;100.00
70745;BME280;59284;31.390;34.904;2022-10-26T03:12:38;94836.09;;;19.16;100.00
70745;BME280;59284;31.390;34.904;2022-10-26T03:15:04;94830.78;;;19.12;100.00
70745;BME280;59284;31.390;34.904;2022-10-26T03:17:30;94830.53;;;19.02;100.00
70745;BME280;59284;31.390;34.904;2022-10-26T03:19:56;94821.53;;;19.03;100.00
70745;BME280;59284;31.390;34.904;2022-10-26T03:22:22;94825.00;;;19.07;100.00
70745;BME280;59284;31.390;34.904;2022-10-26T03:24:48;94830.53;;;19.02;100.00
70745;BME280;59284;31.390;34.904;2022-10-26T03:27:13;94833.84;;;18.99;100.00
70745;BME280;59284;31.390;34.904;2022-10-26T03:29:39;94835.78;;;19.02;100.00
70745;BME280;59284;31.390;34.904;2022-10-26T03:32:05;94834.59;;;18.99;100.00
70745;BME280;59284;31.390;34.904;2022-10-26T03:34:31;94837.31;;;19.03;100.00
70745;BME280;59284;31.390;34.904;2022-10-26T03:36:57;94829.34;;;18.99;100.00
70745;BME280;59284;31.390;34.904;2022-10-26T03:39:22;94844.41;;;19.02;100.00
70745;BME280;59284;31.390;34.904;2022-10-26T03:41:48;94845.72;;;19.08;100.00
70745;BME280;59284;31.390;34.904;2022-10-26T03:44:14;94843.56;;;19.14;100.00
70745;BME280;59284;31.390;34.904;2022-10-26T03:46:39;94843.72;;;19.21;100.00
70745;BME280;59284;31.390;34.904;2022-10-26T03:49:05;94836.38;;;19.26;100.00
70745;BME280;59284;31.390;34.904;2022-10-26T03:51:31;94833.53;;;19.35;100.00
70745;BME280;59284;31.390;34.904;2022-10-26T03:53:57;94840.91;;;19.29;100.00
70745;BME280;59284;31.390;34.904;2022-10-26T03:56:22;94851.53;;;19.33;100.00
70745;BME280;59284;31.390;34.904;2022-10-26T03:58:48;94847.03;;;19.33;100.00
70745;BME280;59284;31.390;34.904;2022-10-26T04:01:14;94849.25;;;19.31;100.00
70745;BME280;59284;31.390;34.904;2022-10-26T04:03:39;94853.06;;;19.34;100.00
70745;BME280;59284;31.390;34.904;2022-10-26T04:06:05;94851.38;;;19.41;100.00
70745;BME280;59284;31.390;34.904;2022-10-26T04:08:31;94855.50;;;19.58;100.00
70745;BME280;59284;31.390;34.904;2022-10-26T04:10:56;94852.84;;;19.74;100.00
70745;BME280;59284;31.390;34.904;2022-10-26T04:13:22;94860.47;;;19.79;100.00
70745;BME280;59284;31.390;34.904;2022-10-26T04:15:48;94868.47;;;19.82;100.00
70745;BME280;59284;31.390;34.904;2022-10-26T04:18:14;94866.50;;;19.79;100.00
70745;BME280;59284;31.390;34.904;2022-10-26T04:20:40;94859.94;;;19.89;100.00
70745;BME280;59284;31.390;34.904;2022-10-26T04:23:10;94862.22;;;19.90;100.00
70745;BME280;59284;31.390;34.904;2022-10-26T04:25:36;94865.69;;;19.94;100.00
70745;BME280;59284;31.390;34.904;2022-10-26T04:28:04;94865.53;;;19.87;100.00
70745;BME280;59284;31.390;34.904;2022-10-26T04:30:31;94870.38;;;19.85;100.00
70745;BME280;59284;31.390;34.904;2022-10-26T04:32:56;94862.56;;;19.89;100.00
70745;BME280;59284;31.390;34.904;2022-10-26T04:35:22;94863.03;;;19.94;100.00
70745;BME280;59284;31.390;34.904;2022-10-26T04:37:48;94878.66;;;20.03;100.00
70745;BME280;59284;31.390;34.904;2022-10-26T04:40:14;94878.38;;;20.08;100.00
70745;BME280;59284;31.390;34.904;2022-10-26T04:42:45;94882.75;;;20.19;100.00
70745;BME280;59284;31.390;34.904;2022-10-26T04:45:12;94892.34;;;20.27;100.00
70745;BME280;59284;31.390;34.904;2022-10-26T04:47:39;94886.09;;;20.36;100.00
70745;BME280;59284;31.390;34.904;2022-10-26T04:50:06;94897.28;;;20.48;100.00
70745;BME280;59284;31.390;34.904;2022-10-26T04:52:33;94901.97;;;20.58;100.00
70745;BME280;59284;31.390;34.904;2022-10-26T04:54:58;94906.59;;;20.84;100.00
70745;BME280;59284;31.390;34.904;2022-10-26T04:57:24;94905.75;;;20.80;100.00
70745;BME280;59284;31.390;34.904;2022-10-26T04:59:49;94905.16;;;21.09;100.00
70745;BME280;59284;31.390;34.904;2022-10-26T05:02:15;94908.16;;;21.30;100.00
70745;BME280;59284;31.390;34.904;2022-10-26T05:04:41;94911.53;;;21.53;100.00
70745;BME280;59284;31.390;34.904;2022-10-26T05:07:06;94911.00;;;21.67;100.00
70745;BME280;59284;31.390;34.904;2022-10-26T05:09:32;94918.75;;;21.83;100.00
70745;BME280;59284;31.390;34.904;2022-10-26T05:11:58;94916.09;;;22.05;100.00
70745;BME280;59284;31.390;34.904;2022-10-26T05:14:24;94925.91;;;22.05;100.00
70745;BME280;59284;31.390;34.904;2022-10-26T05:16:51;94923.16;;;21.98;100.00
70745;BME280;59284;31.390;34.904;2022-10-26T05:19:19;94931.47;;;22.26;100.00
70745;BME280;59284;31.390;34.904;2022-10-26T05:21:45;94933.78;;;22.31;100.00
70745;BME280;59284;31.390;34.904;2022-10-26T05:24:11;94943.94;;;22.59;100.00
70745;BME280;59284;31.390;34.904;2022-10-26T05:26:37;94939.41;;;22.89;100.00
70745;BME280;59284;31.390;34.904;2022-10-26T05:29:02;94945.94;;;22.98;100.00
70745;BME280;59284;31.390;34.904;2022-10-26T05:31:28;94955.03;;;23.01;100.00
70745;BME280;59284;31.390;34.904;2022-10-26T05:33:54;94959.94;;;23.39;100.00
70745;BME280;59284;31.390;34.904;2022-10-26T05:36:20;94956.22;;;23.44;100.00
70745;BME280;59284;31.390;34.904;2022-10-26T05:38:46;94964.59;;;23.49;100.00
70745;BME280;59284;31.390;34.904;2022-10-26T05:41:12;94966.53;;;23.16;100.00
70745;BME280;59284;31.390;34.904;2022-10-26T05:43:38;94962.78;;;23.20;100.00
70745;BME280;59284;31.390;34.904;2022-10-26T05:46:04;94961.09;;;23.01;100.00
70745;BME280;59284;31.390;34.904;2022-10-26T05:48:29;94962.72;;;22.80;100.00
70745;BME280;59284;31.390;34.904;2022-10-26T05:50:59;94968.50;;;22.59;100.00
70745;BME280;59284;31.390;34.904;2022-10-26T05:53:25;94976.31;;;22.78;100.00
70745;BME280;59284;31.390;34.904;2022-10-26T05:55:51;94970.09;;;22.64;100.00
70745;BME280;59284;31.390;34.904;2022-10-26T05:58:17;94966.56;;;22.26;100.00
70745;BME280;59284;31.390;34.904;2022-10-26T06:06:11;94970.53;;;22.10;100.00
70745;BME280;59284;31.390;34.904;2022-10-26T06:08:37;94960.97;;;22.31;100.00
70745;BME280;59284;31.390;34.904;2022-10-26T06:11:03;94967.78;;;22.92;100.00
70745;BME280;59284;31.390;34.904;2022-10-26T06:13:29;94978.59;;;23.13;100.00
70745;BME280;59284;31.390;34.904;2022-10-26T06:30:05;94985.06;;;24.68;100.00
70745;BME280;59284;31.390;34.904;2022-10-26T06:32:32;94998.31;;;24.68;100.00
70745;BME280;59284;31.390;34.904;2022-10-26T06:37:55;94998.84;;;24.95;100.00
70745;BME280;59284;31.390;34.904;2022-10-26T06:40:24;94994.94;;;24.68;100.00
70745;BME280;59284;31.390;34.904;2022-10-26T06:42:51;94995.25;;;24.56;100.00
70745;BME280;59284;31.390;34.904;2022-10-26T06:45:17;94993.25;;;24.35;100.00
70745;BME280;59284;31.390;34.904;2022-10-26T06:50:43;94987.94;;;25.42;100.00
70745;BME280;59284;31.390;34.904;2022-10-26T06:53:48;94999.38;;;26.31;100.00
70745;BME280;59284;31.390;34.904;2022-10-26T06:56:06;95008.88;;;26.39;100.00
70745;BME280;59284;31.390;34.904;2022-10-26T06:58:36;95000.16;;;26.28;100.00
70745;BME280;59284;31.390;34.904;2022-10-26T07:01:03;95016.34;;;26.93;100.00
70745;BME280;59284;31.390;34.904;2022-10-26T07:03:29;95017.88;;;26.73;100.00
70745;BME280;59284;31.390;34.904;2022-10-26T07:05:55;95014.19;;;26.00;100.00
70745;BME280;59284;31.390;34.904;2022-10-26T07:08:21;95014.16;;;26.57;100.00
70745;BME280;59284;31.390;34.904;2022-10-26T07:10:47;95030.91;;;25.94;100.00
70745;BME280;59284;31.390;34.904;2022-10-26T07:13:13;95030.78;;;25.16;100.00
70745;BME280;59284;31.390;34.904;2022-10-26T07:15:39;95040.34;;;24.56;100.00
70745;BME280;59284;31.390;34.904;2022-10-26T07:18:07;95037.22;;;25.15;100.00
70745;BME280;59284;31.390;34.904;2022-10-26T07:20:40;95034.31;;;25.48;100.00
70745;BME280;59284;31.390;34.904;2022-10-26T07:23:07;95025.97;;;25.96;100.00
70745;BME280;59284;31.390;34.904;2022-10-26T07:25:35;95022.53;;;25.56;100.00
70745;BME280;59284;31.390;34.904;2022-10-26T07:28:05;95018.03;;;25.92;100.00
70745;BME280;59284;31.390;34.904;2022-10-26T07:30:31;95016.13;;;26.31;100.00
70745;BME280;59284;31.390;34.904;2022-10-26T07:32:59;95016.09;;;26.07;100.00
70745;BME280;59284;31.390;34.904;2022-10-26T07:35:25;95023.63;;;25.41;100.00
70745;BME280;59284;31.390;34.904;2022-10-26T07:37:50;95027.69;;;25.00;100.00
70745;BME280;59284;31.390;34.904;2022-10-26T07:40:20;95033.06;;;25.25;100.00
70745;BME280;59284;31.390;34.904;2022-10-26T07:42:45;95026.25;;;25.31;100.00
70745;BME280;59284;31.390;34.904;2022-10-26T07:45:11;95011.59;;;27.33;100.00
70745;BME280;59284;31.390;34.904;2022-10-26T07:47:36;95015.16;;;27.70;100.00
70745;BME280;59284;31.390;34.904;2022-10-26T07:50:02;94999.78;;;27.92;100.00
70745;BME280;59284;31.390;34.904;2022-10-26T07:52:29;95011.19;;;26.26;100.00
70745;BME280;59284;31.390;34.904;2022-10-26T07:54:55;95012.56;;;25.15;100.00
70745;BME280;59284;31.390;34.904;2022-10-26T07:57:20;95007.78;;;26.15;100.00
70745;BME280;59284;31.390;34.904;2022-10-26T07:59:46;95012.22;;;25.34;100.00
70745;BME280;59284;31.390;34.904;2022-10-26T08:02:12;95010.31;;;25.20;100.00
70745;BME280;59284;31.390;34.904;2022-10-26T08:04:37;94998.66;;;25.67;100.00
70745;BME280;59284;31.390;34.904;2022-10-26T08:07:03;94999.56;;;24.85;100.00
70745;BME280;59284;31.390;34.904;2022-10-26T08:09:29;94994.72;;;25.15;100.00
70745;BME280;59284;31.390;34.904;2022-10-26T08:11:54;94989.91;;;25.66;100.00
70745;BME280;59284;31.390;34.904;2022-10-26T08:14:20;95008.72;;;24.98;100.00
70745;BME280;59284;31.390;34.904;2022-10-26T08:16:45;94999.66;;;25.13;100.00
70745;BME280;59284;31.390;34.904;2022-10-26T08:19:12;94997.25;;;24.80;100.00
70745;BME280;59284;31.390;34.904;2022-10-26T08:21:37;94990.59;;;25.35;100.00
70745;BME280;59284;31.390;34.904;2022-10-26T08:24:03;94994.81;;;25.43;100.00
70745;BME280;59284;31.390;34.904;2022-10-26T08:26:29;94989.47;;;25.36;100.00
70745;BME280;59284;31.390;34.904;2022-10-26T08:28:55;94987.97;;;26.34;100.00
70745;BME280;59284;31.390;34.904;2022-10-26T08:31:20;94985.38;;;25.60;100.00
70745;BME280;59284;31.390;34.904;2022-10-26T08:33:46;94993.63;;;25.27;100.00
70745;BME280;59284;31.390;34.904;2022-10-26T08:36:12;94986.47;;;26.26;100.00
70745;BME280;59284;31.390;34.904;2022-10-26T08:38:46;94983.81;;;25.91;100.00
70745;BME280;59284;31.390;34.904;2022-10-26T08:41:13;94979.66;;;25.90;100.00
70745;BME280;59284;31.390;34.904;2022-10-26T08:43:44;94978.53;;;25.94;100.00
70745;BME280;59284;31.390;34.904;2022-10-26T08:46:18;94989.13;;;26.26;100.00
70745;BME280;59284;31.390;34.904;2022-10-26T08:48:52;94997.94;;;29.58;100.00
70745;BME280;59284;31.390;34.904;2022-10-26T08:51:23;94991.78;;;32.00;100.00
70745;BME280;59284;31.390;34.904;2022-10-26T08:53:56;94986.19;;;32.97;100.00
70745;BME280;59284;31.390;34.904;2022-10-26T08:56:38;94974.06;;;36.24;100.00
70745;BME280;59284;31.390;34.904;2022-10-26T09:01:53;94997.31;;;26.95;100.00
70745;BME280;59284;31.390;34.904;2022-10-26T09:04:26;94995.59;;;27.29;100.00
70745;BME280;59284;31.390;34.904;2022-10-26T09:12:32;94986.94;;;27.14;100.00
70745;BME280;59284;31.390;34.904;2022-10-26T09:17:56;94976.22;;;35.10;100.00
70745;BME280;59284;31.390;34.904;2022-10-26T09:20:34;94971.75;;;30.42;100.00
70745;BME280;59284;31.390;34.904;2022-10-26T09:25:39;94979.84;;;31.17;100.00
70745;BME280;59284;31.390;34.904;2022-10-26T09:28:13;94982.66;;;28.34;100.00
70745;BME280;59284;31.390;34.904;2022-10-26T09:30:43;94985.03;;;28.25;100.00
70745;BME280;59284;31.390;34.904;2022-10-26T09:33:14;94972.38;;;30.69;100.00
70745;BME280;59284;31.390;34.904;2022-10-26T09:35:50;94976.69;;;28.57;100.00
70745;BME280;59284;31.390;34.904;2022-10-26T09:38:37;94974.25;;;31.79;100.00
70745;BME280;59284;31.390;34.904;2022-10-26T09:41:19;94969.91;;;30.16;100.00
70745;BME280;59284;31.390;34.904;2022-10-26T09:44:02;94976.63;;;28.26;100.00
70745;BME280;59284;31.390;34.904;2022-10-26T09:49:34;94961.28;;;33.47;100.00
70745;BME280;59284;31.390;34.904;2022-10-26T09:52:01;94960.41;;;31.81;100.00
70745;BME280;59284;31.390;34.904;2022-10-26T09:54:26;94951.81;;;33.04;100.00
70745;BME280;59284;31.390;34.904;2022-10-26T09:56:58;94961.97;;;29.36;100.00
70745;BME280;59284;31.390;34.904;2022-10-26T09:59:26;94942.75;;;31.32;100.00
70745;BME280;59284;31.390;34.904;2022-10-26T10:01:52;94941.97;;;33.99;100.00
70745;BME280;59284;31.390;34.904;2022-10-26T10:04:21;94935.59;;;30.73;100.00
70745;BME280;59284;31.390;34.904;2022-10-26T10:07:16;94940.19;;;28.80;100.00
70745;BME280;59284;31.390;34.904;2022-10-26T10:09:38;94940.38;;;31.85;100.00
70745;BME280;59284;31.390;34.904;2022-10-26T10:12:04;94933.91;;;31.83;100.00
70745;BME280;59284;31.390;34.904;2022-10-26T10:14:32;94936.41;;;30.50;100.00
70745;BME280;59284;31.390;34.904;2022-10-26T10:17:07;94930.94;;;32.10;100.00
70745;BME280;59284;31.390;34.904;2022-10-26T10:19:39;94937.91;;;29.09;100.00
70745;BME280;59284;31.390;34.904;2022-10-26T10:22:11;94934.88;;;30.69;100.00
70745;BME280;59284;31.390;34.904;2022-10-26T10:24:40;94917.41;;;36.84;100.00
70745;BME280;59284;31.390;34.904;2022-10-26T10:29:43;94925.88;;;31.67;100.00
70745;BME280;59284;31.390;34.904;2022-10-26T10:32:19;94925.28;;;30.09;100.00
70745;BME280;59284;31.390;34.904;2022-10-26T10:34:46;94928.69;;;29.40;100.00
70745;BME280;59284;31.390;34.904;2022-10-26T10:37:33;94923.28;;;28.60;100.00
70745;BME280;59284;31.390;34.904;2022-10-26T10:40:05;94927.41;;;28.65;100.00
70745;BME280;59284;31.390;34.904;2022-10-26T10:42:34;94930.06;;;26.73;100.00
70745;BME280;59284;31.390;34.904;2022-10-26T10:45:02;94931.53;;;27.54;100.00
70745;BME280;59284;31.390;34.904;2022-10-26T10:47:33;94931.28;;;27.86;100.00
70745;BME280;59284;31.390;34.904;2022-10-26T10:50:15;94928.97;;;27.84;100.00
70745;BME280;59284;31.390;34.904;2022-10-26T10:52:43;94936.50;;;26.86;100.00
70745;BME280;59284;31.390;34.904;2022-10-26T10:58:15;94939.25;;;26.55;100.00
70745;BME280;59284;31.390;34.904;2022-10-26T11:00:47;94938.06;;;26.70;100.00
70745;BME280;59284;31.390;34.904;2022-10-26T11:08:34;94921.13;;;27.15;100.00
70745;BME280;59284;31.390;34.904;2022-10-26T11:13:44;94911.91;;;27.27;100.00
70745;BME280;59284;31.390;34.904;2022-10-26T11:16:18;94913.78;;;27.81;100.00
70745;BME280;59284;31.390;34.904;2022-10-26T11:18:50;94915.28;;;27.38;100.00
70745;BME280;59284;31.390;34.904;2022-10-26T11:21:27;94910.38;;;27.77;100.00
70745;BME280;59284;31.390;34.904;2022-10-26T11:24:25;94907.19;;;28.33;100.00
70745;BME280;59284;31.390;34.904;2022-10-26T11:32:28;94890.03;;;29.71;100.00
70745;BME280;59284;31.390;34.904;2022-10-26T11:35:09;94889.72;;;32.04;100.00
70745;BME280;59284;31.390;34.904;2022-10-26T11:40:23;94876.50;;;33.67;100.00
70745;BME280;59284;31.390;34.904;2022-10-26T11:43:52;94886.41;;;31.51;100.00
70745;BME280;59284;31.390;34.904;2022-10-26T11:46:15;94889.00;;;28.85;100.00
70745;BME280;59284;31.390;34.904;2022-10-26T11:48:50;94878.16;;;33.52;100.00
70745;BME280;59284;31.390;34.904;2022-10-26T11:51:37;94894.06;;;29.06;100.00
70745;BME280;59284;31.390;34.904;2022-10-26T11:54:13;94878.97;;;33.49;100.00
70745;BME280;59284;31.390;34.904;2022-10-26T11:56:46;94867.66;;;35.27;100.00
70745;BME280;59284;31.390;34.904;2022-10-26T11:59:21;94868.72;;;31.21;100.00
70745;BME280;59284;31.390;34.904;2022-10-26T12:01:56;94871.78;;;32.29;100.00
70745;BME280;59284;31.390;34.904;2022-10-26T12:04:28;94867.34;;;32.77;100.00
70745;BME280;59284;31.390;34.904;2022-10-26T12:06:56;94887.44;;;30.70;100.00
70745;BME280;59284;31.390;34.904;2022-10-26T12:09:28;94893.56;;;32.31;100.00
70745;BME280;59284;31.390;34.904;2022-10-26T12:14:44;94899.66;;;28.89;100.00
70745;BME280;59284;31.390;34.904;2022-10-26T12:17:24;94917.88;;;28.30;100.00
70745;BME280;59284;31.390;34.904;2022-10-26T12:20:38;94915.66;;;27.36;100.00
70745;BME280;59284;31.390;34.904;2022-10-26T12:23:08;94927.00;;;24.46;100.00
70745;BME280;59284;31.390;34.904;2022-10-26T12:25:35;94924.13;;;24.03;100.00
70745;BME280;59284;31.390;34.904;2022-10-26T12:28:01;94934.59;;;23.86;100.00
70745;BME280;59284;31.390;34.904;2022-10-26T12:30:32;94933.84;;;23.34;100.00
70745;BME280;59284;31.390;34.904;2022-10-26T12:33:00;94927.34;;;23.32;100.00
70745;BME280;59284;31.390;34.904;2022-10-26T12:35:38;94927.34;;;23.76;100.00
70745;BME280;59284;31.390;34.904;2022-10-26T12:41:07;94913.97;;;25.27;100.00
70745;BME280;59284;31.390;34.904;2022-10-26T12:43:40;94919.66;;;25.32;100.00
70745;BME280;59284;31.390;34.904;2022-10-26T12:48:45;94926.47;;;25.19;100.00
70745;BME280;59284;31.390;34.904;2022-10-26T13:08:09;94950.44;;;25.68;100.00
70745;BME280;59284;31.390;34.904;2022-10-26T13:10:39;94954.16;;;25.11;100.00
70745;BME280;59284;31.390;34.904;2022-10-26T13:13:08;94967.09;;;25.30;100.00
70745;BME280;59284;31.390;34.904;2022-10-26T13:15:53;94979.09;;;24.82;100.00
70745;BME280;59284;31.390;34.904;2022-10-26T13:18:20;94965.53;;;27.83;100.00
70745;BME280;59284;31.390;34.904;2022-10-26T13:21:07;94962.56;;;27.74;100.00
70745;BME280;59284;31.390;34.904;2022-10-26T13:23:37;94954.53;;;26.40;100.00
70745;BME280;59284;31.390;34.904;2022-10-26T13:26:20;94965.22;;;25.76;100.00
70745;BME280;59284;31.390;34.904;2022-10-26T13:28:57;94963.22;;;24.99;100.00
70745;BME280;59284;31.390;34.904;2022-10-26T13:34:04;94954.94;;;26.00;100.00
70745;BME280;59284;31.390;34.904;2022-10-26T13:39:35;94961.06;;;25.65;100.00
70745;BME280;59284;31.390;34.904;2022-10-26T13:42:04;94970.81;;;25.08;100.00
70745;BME280;59284;31.390;34.904;2022-10-26T13:44:43;94973.53;;;25.36;100.00
70745;BME280;59284;31.390;34.904;2022-10-26T13:50:22;94985.72;;;25.90;100.00
70745;BME280;59284;31.390;34.904;2022-10-26T13:52:52;94989.16;;;24.52;100.00
70745;BME280;59284;31.390;34.904;2022-10-26T13:55:50;94984.97;;;24.47;100.00
70745;BME280;59284;31.390;34.904;2022-10-26T14:03:36;94999.50;;;22.88;100.00
70745;BME280;59284;31.390;34.904;2022-10-26T14:08:32;95005.91;;;22.87;100.00
70745;BME280;59284;31.390;34.904;2022-10-26T14:10:58;95009.06;;;22.67;100.00
70745;BME280;59284;31.390;34.904;2022-10-26T14:13:26;95017.84;;;22.48;100.00
70745;BME280;59284;31.390;34.904;2022-10-26T14:15:57;95023.25;;;22.85;100.00
70745;BME280;59284;31.390;34.904;2022-10-26T14:18:25;95022.97;;;22.60;100.00
70745;BME280;59284;31.390;34.904;2022-10-26T14:20:59;95017.97;;;22.85;100.00
70745;BME280;59284;31.390;34.904;2022-10-26T14:23:36;95017.06;;;22.74;100.00
70745;BME280;59284;31.390;34.904;2022-10-26T14:26:21;95011.09;;;22.80;100.00
70745;BME280;59284;31.390;34.904;2022-10-26T14:28:49;95007.59;;;22.73;100.00
70745;BME280;59284;31.390;34.904;2022-10-26T14:31:32;95013.72;;;22.77;100.00
70745;BME280;59284;31.390;34.904;2022-10-26T14:34:00;95009.25;;;22.55;100.00
70745;BME280;59284;31.390;34.904;2022-10-26T14:36:40;95009.91;;;22.74;100.00
70745;BME280;59284;31.390;34.904;2022-10-26T14:41:47;95024.91;;;22.41;100.00
70745;BME280;59284;31.390;34.904;2022-10-26T14:44:20;95025.19;;;22.32;100.00
70745;BME280;59284;31.390;34.904;2022-10-26T14:46:46;95037.75;;;22.12;100.00
70745;BME280;59284;31.390;34.904;2022-10-26T14:49:18;95035.75;;;22.32;100.00
70745;BME280;59284;31.390;34.904;2022-10-26T14:51:45;95043.19;;;22.23;100.00
70745;BME280;59284;31.390;34.904;2022-10-26T14:54:23;95047.78;;;22.03;100.00
70745;BME280;59284;31.390;34.904;2022-10-26T14:56:49;95059.59;;;22.09;100.00
70745;BME280;59284;31.390;34.904;2022-10-26T14:59:29;95053.88;;;22.07;100.00
70745;BME280;59284;31.390;34.904;2022-10-26T15:01:56;95067.78;;;21.82;100.00
70745;BME280;59284;31.390;34.904;2022-10-26T15:04:55;95051.53;;;21.57;100.00
70745;BME280;59284;31.390;34.904;2022-10-26T15:07:21;95043.66;;;21.60;100.00
70745;BME280;59284;31.390;34.904;2022-10-26T15:09:51;95053.69;;;21.51;100.00
70745;BME280;59284;31.390;34.904;2022-10-26T15:12:35;95055.34;;;21.59;100.00